Time;durP1;ratioP1;P1;durP2;ratioP2;P2;SDS_P1;SDS_P2;PMS_P1;PMS_P2;Temp;Humidity;BMP_temperature;BMP_pressure;BME280_temperature;BME280_humidity;BME280_pressure;Samples;Min_cycle;Max_cycle;Signal;HPM_P1;HPM_P2
2022/01/26 00:06:33;;;;;;;45.03;20.83;;;;;;;0.22;87.54;99583.88;5112193;27;20506;-75
2022/01/26 00:08:59;;;;;;;39.45;18.77;;;;;;;0.20;87.00;99577.03;5112544;28;20471;-75
2022/01/26 00:11:24;;;;;;;35.22;15.25;;;;;;;0.18;87.23;99579.94;5112334;28;20030;-75
2022/01/26 00:13:51;;;;;;;34.42;14.90;;;;;;;0.17;87.21;99580.13;5112015;28;20027;-75
2022/01/26 00:16:28;;;;;;;28.92;13.68;;;;;;;0.18;87.11;99581.78;5112098;28;20058;-74
2022/01/26 00:18:58;;;;;;;38.15;16.30;;;;;;;0.17;87.42;99566.63;5092848;28;20019;-75
2022/01/26 00:21:31;;;;;;;36.30;15.75;;;;;;;0.17;87.41;99574.72;5107968;27;20034;-75
2022/01/26 00:39:32;;;;;;;33.80;14.95;;;;;;;0.17;87.32;99562.09;5111495;28;20054;-74
2022/01/26 00:41:59;;;;;;;35.35;16.33;;;;;;;0.21;87.44;99560.63;5111663;28;20099;-75
2022/01/26 00:44:36;;;;;;;37.50;17.20;;;;;;;0.19;87.49;99556.47;5111023;28;20476;-75
2022/01/26 00:47:02;;;;;;;31.75;15.77;;;;;;;0.16;87.37;99560.44;5111096;28;20079;-75
2022/01/26 00:49:28;;;;;;;41.25;19.00;;;;;;;0.15;87.32;99561.47;5111589;28;20480;-74
2022/01/26 00:51:54;;;;;;;37.90;17.88;;;;;;;0.12;87.47;99564.56;5111387;28;20110;-74
2022/01/26 00:54:20;;;;;;;33.97;17.38;;;;;;;0.11;87.20;99565.59;5111212;27;20019;-75
2022/01/26 00:56:45;;;;;;;31.65;14.23;;;;;;;0.11;87.21;99558.31;5111243;28;20890;-74
2022/01/26 00:59:11;;;;;;;35.85;16.92;;;;;;;0.09;87.17;99554.97;5111556;28;20024;-75
2022/01/26 01:01:37;;;;;;;34.33;16.77;;;;;;;0.11;87.13;99569.09;5109951;28;20093;-76
2022/01/26 01:04:03;;;;;;;30.42;15.05;;;;;;;0.11;87.33;99557.50;5112435;28;20427;-75
2022/01/26 01:06:35;;;;;;;36.20;16.17;;;;;;;0.12;87.50;99557.28;5111766;28;20036;-75
2022/01/26 01:09:01;;;;;;;28.17;15.00;;;;;;;0.13;87.41;99558.13;5092128;28;20024;-75
2022/01/26 01:11:27;;;;;;;25.85;12.35;;;;;;;0.16;87.46;99557.72;5111551;28;20047;-75
2022/01/26 01:13:53;;;;;;;30.52;15.52;;;;;;;0.20;87.55;99548.19;5111318;28;20379;-75
2022/01/26 01:16:22;;;;;;;30.65;14.98;;;;;;;0.25;87.64;99550.28;5110854;28;20017;-75
2022/01/26 01:29:29;;;;;;;36.78;16.23;;;;;;;0.24;87.63;99551.31;5111036;28;20027;-72
2022/01/26 01:31:58;;;;;;;29.05;14.48;;;;;;;0.22;87.48;99547.97;5111453;28;20020;-72
2022/01/26 01:34:27;;;;;;;29.45;15.45;;;;;;;0.26;87.31;99546.56;5111137;28;20118;-71
2022/01/26 01:36:55;;;;;;;33.30;15.82;;;;;;;0.25;87.56;99544.88;5111114;28;20035;-71
2022/01/26 01:39:21;;;;;;;31.83;15.65;;;;;;;0.24;87.25;99546.75;5111037;28;20372;-71
2022/01/26 01:41:50;;;;;;;33.20;14.95;;;;;;;0.24;87.37;99544.03;5110884;28;20537;-72
2022/01/26 01:44:16;;;;;;;30.50;15.73;;;;;;;0.24;87.01;99540.53;5110667;28;20046;-71
2022/01/26 01:46:42;;;;;;;30.33;15.07;;;;;;;0.21;87.31;99539.03;5110253;28;20520;-71
2022/01/26 01:49:10;;;;;;;32.25;13.85;;;;;;;0.21;87.39;99530.13;5111189;28;20020;-71
2022/01/26 01:51:39;;;;;;;28.35;14.43;;;;;;;0.20;87.08;99529.31;5111066;28;20530;-71
2022/01/26 01:54:11;;;;;;;23.77;12.50;;;;;;;0.25;87.55;99529.50;5110347;28;20038;-71
2022/01/26 01:56:39;;;;;;;31.75;15.18;;;;;;;0.21;87.71;99532.84;5109607;28;20038;-71
2022/01/26 01:59:05;;;;;;;27.33;13.85;;;;;;;0.19;87.59;99535.75;5110968;28;20150;-72
2022/01/26 02:01:30;;;;;;;28.45;14.23;;;;;;;0.21;87.38;99527.44;5110876;28;20118;-71
2022/01/26 02:03:56;;;;;;;29.90;13.20;;;;;;;0.22;87.64;99529.91;5109977;28;20051;-71
2022/01/26 02:06:22;;;;;;;26.92;14.57;;;;;;;0.25;87.30;99531.41;5109437;28;20070;-71
2022/01/26 02:08:48;;;;;;;28.15;13.57;;;;;;;0.23;87.19;99525.38;5109850;28;20015;-72
2022/01/26 02:11:14;;;;;;;28.63;14.50;;;;;;;0.24;86.91;99521.63;5090671;28;20452;-72
2022/01/26 02:13:59;;;;;;;36.42;19.27;;;;;;;0.25;87.09;99524.13;5110441;28;20027;-72
2022/01/26 02:16:51;;;;;;;25.95;14.43;;;;;;;0.31;87.63;99522.50;5110092;28;20027;-71
2022/01/26 03:02:03;;;;;;;21.75;11.38;;;;;;;0.20;87.22;99502.34;5108679;28;20042;-72
2022/01/26 03:04:43;;;;;;;23.30;11.15;;;;;;;0.20;87.40;99491.53;5111802;28;20096;-71
2022/01/26 03:07:19;;;;;;;21.25;10.65;;;;;;;0.25;86.94;99501.72;5111303;28;20035;-71
2022/01/26 03:09:51;;;;;;;20.30;11.05;;;;;;;0.27;87.26;99496.94;5111279;28;20027;-72
2022/01/26 03:12:27;;;;;;;19.70;11.65;;;;;;;0.31;87.64;99497.34;5112012;28;20086;-72
2022/01/26 03:14:58;;;;;;;23.40;11.90;;;;;;;0.38;86.91;99500.91;5109420;28;20030;-72
2022/01/26 03:20:12;;;;;;;20.55;10.60;;;;;;;0.40;87.16;99501.53;5113339;28;20073;-73
2022/01/26 03:38:06;;;;;;;17.70;8.88;;;;;;;0.25;86.48;99488.22;5112995;28;20031;-74
2022/01/26 03:40:34;;;;;;;16.35;8.57;;;;;;;0.26;87.16;99488.00;5113424;28;20019;-75
2022/01/26 03:43:00;;;;;;;17.10;8.32;;;;;;;0.27;86.75;99491.56;5112876;28;20441;-75
2022/01/26 03:45:26;;;;;;;18.40;9.85;;;;;;;0.34;86.97;99487.00;5112716;28;20031;-74
2022/01/26 03:47:53;;;;;;;17.23;8.88;;;;;;;0.39;87.14;99491.78;5113334;28;20035;-74
2022/01/26 03:50:19;;;;;;;17.35;9.45;;;;;;;0.41;86.36;99492.41;5113855;28;20061;-74
2022/01/26 03:52:44;;;;;;;15.82;9.13;;;;;;;0.42;87.39;99488.69;5114071;28;20459;-74
2022/01/26 03:55:10;;;;;;;13.68;7.65;;;;;;;0.43;86.96;99482.25;5115359;27;20129;-74
2022/01/26 03:57:36;;;;;;;15.95;8.57;;;;;;;0.46;86.74;99481.84;5113549;28;20388;-74
2022/01/26 04:00:01;;;;;;;15.23;7.97;;;;;;;0.43;86.62;99480.38;5114245;28;20032;-75
2022/01/26 04:02:27;;;;;;;16.00;8.57;;;;;;;0.38;86.46;99487.41;5113828;28;20066;-75
2022/01/26 04:04:58;;;;;;;16.27;9.13;;;;;;;0.37;86.38;99485.75;5094353;28;20024;-75
2022/01/26 04:07:23;;;;;;;14.55;6.75;;;;;;;0.41;86.81;99489.72;5112985;28;21463;-75
2022/01/26 04:09:49;;;;;;;13.85;7.53;;;;;;;0.38;86.44;99490.13;5109753;28;20088;-75
2022/01/26 04:12:15;;;;;;;16.38;8.00;;;;;;;0.33;86.52;99489.91;5112716;28;20023;-75
2022/01/26 04:14:44;;;;;;;13.80;7.22;;;;;;;0.28;86.56;99485.94;5112617;28;20049;-74
2022/01/26 04:17:09;;;;;;;17.07;9.53;;;;;;;0.28;86.79;99480.53;5111856;28;20028;-74
2022/01/26 04:19:37;;;;;;;13.52;7.40;;;;;;;0.32;86.14;99478.28;5113130;28;20085;-75
2022/01/26 04:24:36;;;;;;;11.82;7.00;;;;;;;0.26;86.16;99489.88;5113422;28;20038;-74
2022/01/26 04:27:07;;;;;;;11.30;6.65;;;;;;;0.21;86.12;99492.38;5113030;28;20059;-75
2022/01/26 04:29:34;;;;;;;13.90;7.53;;;;;;;0.18;86.59;99487.38;5113114;28;20020;-74
2022/01/26 04:32:02;;;;;;;12.18;6.45;;;;;;;0.19;86.61;99491.72;5113437;28;20024;-74
2022/01/26 04:34:28;;;;;;;11.90;7.05;;;;;;;0.19;86.65;99492.56;5113414;28;20019;-74
2022/01/26 04:37:11;;;;;;;12.65;6.55;;;;;;;0.20;86.54;99493.41;5113195;28;20028;-74
2022/01/26 04:39:43;;;;;;;13.95;7.20;;;;;;;0.22;85.90;99491.31;5112436;28;20055;-74
2022/01/26 04:42:27;;;;;;;12.35;6.95;;;;;;;0.19;86.16;99489.88;5111653;28;20111;-74
2022/01/26 04:45:02;;;;;;;14.82;7.68;;;;;;;0.21;86.52;99487.78;5111089;28;20061;-74
2022/01/26 04:47:28;;;;;;;13.13;7.22;;;;;;;0.19;86.26;99483.63;5112494;28;20038;-74
2022/01/26 04:49:53;;;;;;;14.02;7.43;;;;;;;0.21;86.43;99484.25;5093973;28;20035;-74
2022/01/26 04:52:19;;;;;;;14.23;8.20;;;;;;;0.21;86.58;99485.09;5112192;28;20039;-74
2022/01/26 04:54:44;;;;;;;12.77;7.22;;;;;;;0.21;86.60;99495.06;5112815;28;20024;-74
2022/01/26 04:57:10;;;;;;;12.75;6.88;;;;;;;0.21;86.54;99490.47;5112721;28;20015;-74
2022/01/26 04:59:35;;;;;;;10.52;6.15;;;;;;;0.21;86.52;99487.78;5112819;28;20390;-73
2022/01/26 05:02:01;;;;;;;11.35;6.10;;;;;;;0.23;86.31;99479.50;5113092;28;20035;-75
2022/01/26 05:04:26;;;;;;;10.02;5.80;;;;;;;0.25;86.49;99477.44;5112027;28;20020;-74
2022/01/26 05:06:51;;;;;;;9.90;5.80;;;;;;;0.27;86.61;99480.75;5111839;28;20077;-74
2022/01/26 05:09:19;;;;;;;10.10;5.45;;;;;;;0.26;86.74;99477.22;5110216;28;20076;-74
2022/01/26 05:11:47;;;;;;;12.15;6.20;;;;;;;0.28;86.57;99479.72;5112015;28;20023;-74
2022/01/26 05:14:13;;;;;;;11.75;6.60;;;;;;;0.25;86.32;99474.72;5112627;28;20023;-74
2022/01/26 05:16:38;;;;;;;12.40;6.63;;;;;;;0.23;86.32;99471.41;5111374;28;20031;-74
2022/01/26 05:19:05;;;;;;;13.43;7.18;;;;;;;0.20;86.39;99478.06;5110424;28;20034;-74
2022/01/26 05:21:31;;;;;;;12.60;7.55;;;;;;;0.17;86.62;99478.47;5112239;28;20463;-74
2022/01/26 05:23:57;;;;;;;12.65;7.80;;;;;;;0.13;86.50;99474.50;5112502;28;20034;-74
2022/01/26 05:26:23;;;;;;;15.82;9.27;;;;;;;0.11;86.73;99479.25;5112253;28;20084;-74
2022/01/26 05:28:49;;;;;;;20.63;10.52;;;;;;;0.10;86.51;99472.19;5111714;28;20039;-74
2022/01/26 05:31:15;;;;;;;19.00;9.35;;;;;;;0.09;86.98;99476.75;5112397;28;20031;-74
2022/01/26 05:33:40;;;;;;;19.42;9.23;;;;;;;0.08;86.99;99468.88;5112409;28;20459;-74
2022/01/26 05:36:06;;;;;;;24.88;11.20;;;;;;;0.09;87.05;99467.84;5112009;28;20036;-74
2022/01/26 05:38:32;;;;;;;18.55;9.40;;;;;;;0.08;86.74;99469.69;5111681;28;20054;-74
2022/01/26 05:41:01;;;;;;;17.85;9.40;;;;;;;0.07;86.66;99467.22;5111667;28;20023;-74
2022/01/26 05:43:31;;;;;;;19.52;9.38;;;;;;;0.06;86.33;99463.66;5111703;28;20059;-74
2022/01/26 05:46:05;;;;;;;17.52;9.50;;;;;;;0.06;86.77;99458.28;5111759;28;20068;-74
2022/01/26 05:48:31;;;;;;;19.27;9.90;;;;;;;0.10;86.38;99456.03;5111851;28;20068;-74
2022/01/26 05:51:05;;;;;;;20.73;12.35;;;;;;;0.08;86.63;99458.09;5111586;28;20028;-74
2022/01/26 05:53:31;;;;;;;17.90;9.82;;;;;;;0.09;86.34;99460.56;5111525;28;20027;-74
2022/01/26 05:55:58;;;;;;;20.40;10.95;;;;;;;0.06;86.78;99458.28;5111350;28;20717;-74
2022/01/26 05:58:24;;;;;;;22.02;11.82;;;;;;;0.05;86.56;99456.59;5111641;28;20142;-73
2022/01/26 06:00:49;;;;;;;20.23;10.45;;;;;;;0.04;86.67;99459.53;5114092;27;20470;-74
2022/01/26 06:03:15;;;;;;;21.10;9.27;;;;;;;0.03;87.13;99457.84;5110231;28;20458;-74
2022/01/26 06:05:40;;;;;;;19.40;9.35;;;;;;;0.04;87.21;99463.03;5092459;27;20027;-74
2022/01/26 06:08:06;;;;;;;21.27;11.15;;;;;;;0.05;86.66;99463.88;5109828;27;20036;-74
2022/01/26 06:10:32;;;;;;;17.05;9.38;;;;;;;0.05;87.11;99453.91;5109573;28;20551;-74
2022/01/26 06:12:57;;;;;;;15.05;8.55;;;;;;;0.12;87.47;99456.66;5111371;28;20035;-74
2022/01/26 06:15:23;;;;;;;15.30;8.43;;;;;;;0.11;87.11;99453.09;5113761;27;20372;-74
2022/01/26 06:17:48;;;;;;;15.80;8.65;;;;;;;0.14;87.32;99452.69;5110713;28;20024;-74
2022/01/26 06:20:14;;;;;;;18.80;10.18;;;;;;;0.13;87.04;99458.31;5110834;28;20031;-73
2022/01/26 06:22:40;;;;;;;17.88;9.23;;;;;;;0.09;87.12;99455.16;5111049;28;20023;-73
2022/01/26 06:25:07;;;;;;;16.13;9.50;;;;;;;0.09;86.83;99460.56;5110810;28;20460;-73
2022/01/26 06:27:35;;;;;;;14.27;9.38;;;;;;;0.12;87.65;99457.47;5110792;28;20035;-74
2022/01/26 06:30:01;;;;;;;15.07;9.07;;;;;;;0.14;87.29;99457.28;5111176;28;20031;-74
2022/01/26 06:32:28;;;;;;;14.50;8.45;;;;;;;0.12;87.24;99457.47;5093260;28;20081;-74
2022/01/26 06:34:54;;;;;;;13.88;8.45;;;;;;;0.12;87.28;99456.66;5111432;28;20467;-73
2022/01/26 06:37:19;;;;;;;11.02;7.00;;;;;;;0.18;87.01;99447.75;5110990;28;20038;-73
2022/01/26 06:39:45;;;;;;;14.80;7.88;;;;;;;0.18;86.94;99450.44;5111242;28;20070;-73
2022/01/26 06:42:16;;;;;;;13.65;8.05;;;;;;;0.19;86.79;99453.97;5111232;28;20085;-73
2022/01/26 06:45:08;;;;;;;12.80;7.82;;;;;;;0.18;86.73;99466.63;5112632;28;20089;-74
2022/01/26 06:50:18;;;;;;;12.52;6.72;;;;;;;0.19;86.84;99457.50;5111569;28;20040;-73
2022/01/26 06:52:47;;;;;;;12.10;6.93;;;;;;;0.24;87.42;99455.00;5115501;28;20048;-73
2022/01/26 06:55:13;;;;;;;12.90;7.22;;;;;;;0.29;86.84;99459.81;5115681;27;20027;-73
2022/01/26 06:57:39;;;;;;;13.15;7.28;;;;;;;0.31;86.52;99455.03;5115876;27;20467;-74
2022/01/26 07:00:06;;;;;;;14.20;7.03;;;;;;;0.34;87.18;99456.47;5115496;28;20106;-74
2022/01/26 07:02:31;;;;;;;12.35;7.30;;;;;;;0.37;87.08;99448.81;5114837;28;20035;-74
2022/01/26 07:04:57;;;;;;;10.85;6.30;;;;;;;0.40;87.19;99440.31;5114157;28;20028;-74
2022/01/26 07:07:22;;;;;;;11.88;7.57;;;;;;;0.41;87.33;99451.94;5115160;28;20041;-74
2022/01/26 07:09:47;;;;;;;18.45;9.40;;;;;;;0.42;87.29;99449.00;5114950;28;20028;-73
2022/01/26 07:12:13;;;;;;;23.55;11.20;;;;;;;0.44;86.62;99448.81;5114785;28;20076;-74
2022/01/26 07:22:38;;;;;;;13.43;7.82;;;;;;;0.36;86.68;99444.47;5114738;28;20031;-73
2022/01/26 07:25:04;;;;;;;12.95;7.30;;;;;;;0.35;86.46;99448.19;5114364;28;20030;-74
2022/01/26 07:27:29;;;;;;;15.05;7.90;;;;;;;0.34;86.64;99448.38;5114131;28;20031;-74
2022/01/26 07:29:56;;;;;;;18.35;8.07;;;;;;;0.36;86.61;99444.47;5114499;28;20172;-74
2022/01/26 07:32:23;;;;;;;37.30;13.88;;;;;;;0.43;86.65;99444.47;5114000;28;20038;-74
2022/01/26 07:34:52;;;;;;;20.73;9.80;;;;;;;0.40;86.35;99447.56;5113766;27;20041;-73
2022/01/26 07:37:18;;;;;;;24.85;11.15;;;;;;;0.39;87.04;99444.06;5095446;28;20459;-74
2022/01/26 07:39:48;;;;;;;25.77;11.15;;;;;;;0.44;86.57;99438.03;5112021;28;20031;-74
2022/01/26 07:42:14;;;;;;;30.95;11.82;;;;;;;0.51;87.27;99446.13;5111035;28;20028;-73
2022/01/26 07:44:40;;;;;;;24.70;10.15;;;;;;;0.56;86.89;99446.34;5111264;28;20071;-74
2022/01/26 07:47:06;;;;;;;15.57;7.57;;;;;;;0.61;86.93;99448.44;5112431;27;20036;-74
2022/01/26 07:49:31;;;;;;;11.82;6.30;;;;;;;0.69;87.07;99448.22;5118463;27;20042;-73
2022/01/26 07:51:57;;;;;;;14.05;7.63;;;;;;;0.76;86.46;99442.84;5114198;27;20036;-73
2022/01/26 07:54:24;;;;;;;13.63;7.20;;;;;;;0.78;86.82;99448.84;5116422;27;20361;-73
2022/01/26 07:56:49;;;;;;;22.63;10.30;;;;;;;0.81;86.73;99446.56;5111503;27;20026;-73
2022/01/26 07:59:14;;;;;;;20.45;9.88;;;;;;;0.79;86.52;99445.94;5112436;28;20415;-72
2022/01/26 08:01:40;;;;;;;20.63;8.30;;;;;;;0.78;86.72;99446.97;5112544;27;20039;-72
2022/01/26 08:04:05;;;;;;;19.63;9.77;;;;;;;0.80;86.50;99453.00;5112828;28;20371;-72
2022/01/26 08:06:31;;;;;;;41.17;15.15;;;;;;;0.81;86.05;99451.16;5110235;28;20031;-73
2022/01/26 08:08:57;;;;;;;27.40;11.80;;;;;;;0.80;85.95;99444.91;5114352;27;20020;-72
2022/01/26 08:11:26;;;;;;;25.42;11.98;;;;;;;0.80;85.92;99452.19;5114183;27;20035;-72
2022/01/26 08:13:52;;;;;;;28.98;12.65;;;;;;;0.85;86.05;99449.66;5111156;27;20028;-72
2022/01/26 08:16:18;;;;;;;29.95;13.25;;;;;;;0.92;86.81;99449.69;5111507;27;20026;-71
2022/01/26 08:18:43;;;;;;;21.90;9.48;;;;;;;0.98;86.21;99441.56;5110945;28;20038;-67
2022/01/26 08:21:09;;;;;;;21.52;9.57;;;;;;;1.01;85.70;99443.84;5111868;28;20015;-69
2022/01/26 08:23:37;;;;;;;20.00;9.68;;;;;;;0.99;85.91;99448.63;5092925;28;20024;-69
2022/01/26 08:26:03;;;;;;;30.05;13.48;;;;;;;0.96;85.65;99450.94;5112989;27;20035;-69
2022/01/26 08:28:38;;;;;;;20.95;10.95;;;;;;;0.92;86.30;99445.09;5110720;28;20072;-69
2022/01/26 08:31:04;;;;;;;34.78;15.80;;;;;;;0.88;85.52;99441.16;5111803;27;20034;-69
2022/01/26 08:33:30;;;;;;;32.08;15.90;;;;;;;1.00;85.55;99447.59;5114565;27;20028;-69
2022/01/26 08:35:55;;;;;;;25.77;13.45;;;;;;;1.09;86.31;99452.78;5111826;28;20040;-70
2022/01/26 08:38:21;;;;;;;21.65;10.40;;;;;;;1.02;85.27;99450.06;5108506;28;20036;-73
2022/01/26 08:40:47;;;;;;;20.58;11.50;;;;;;;1.01;85.85;99446.56;5106514;27;20038;-74
2022/01/26 08:43:13;;;;;;;20.05;11.50;;;;;;;1.09;85.44;99453.59;5110841;28;20043;-73
2022/01/26 08:45:40;;;;;;;20.10;10.82;;;;;;;1.08;85.65;99454.63;5110777;28;20032;-69
2022/01/26 08:48:06;;;;;;;17.42;9.60;;;;;;;1.08;85.56;99449.22;5112272;28;20322;-69
2022/01/26 08:50:32;;;;;;;15.82;8.55;;;;;;;1.12;85.94;99453.19;5112629;28;20662;-70
2022/01/26 08:52:57;;;;;;;20.50;11.02;;;;;;;1.15;86.01;99452.75;5112336;28;20016;-69
2022/01/26 08:55:23;;;;;;;20.08;11.18;;;;;;;1.21;85.58;99461.06;5112233;28;20064;-69
2022/01/26 08:57:48;;;;;;;62.88;29.73;;;;;;;1.20;85.76;99457.56;5097855;28;20408;-70
2022/01/26 09:00:17;;;;;;;47.70;20.17;;;;;;;1.17;85.22;99463.38;5111036;27;20035;-69
2022/01/26 09:02:42;;;;;;;46.70;26.27;;;;;;;1.19;84.93;99453.19;5111648;28;20019;-69
2022/01/26 09:05:08;;;;;;;30.02;14.25;;;;;;;1.28;85.59;99461.91;5111704;28;20034;-69
2022/01/26 09:07:34;;;;;;;31.95;13.45;;;;;;;1.31;85.08;99467.72;5112661;28;20043;-69
2022/01/26 09:10:02;;;;;;;19.88;10.90;;;;;;;1.34;85.20;99464.59;5109485;28;20468;-70
2022/01/26 09:12:29;;;;;;;25.75;13.15;;;;;;;1.38;85.74;99478.53;5112773;28;20027;-69
2022/01/26 09:14:54;;;;;;;27.88;16.17;;;;;;;1.45;85.58;99462.28;5112707;28;20043;-70
2022/01/26 09:17:20;;;;;;;28.17;16.70;;;;;;;1.51;85.31;99471.41;5112298;28;20031;-69
2022/01/26 09:19:48;;;;;;;26.58;13.25;;;;;;;1.43;84.47;99472.47;5112754;28;20073;-69
2022/01/26 09:22:15;;;;;;;25.63;12.70;;;;;;;1.44;85.10;99464.13;5112414;28;20036;-68
2022/01/26 09:24:42;;;;;;;27.73;13.40;;;;;;;1.48;85.05;99462.69;5112139;28;20497;-67
2022/01/26 09:27:11;;;;;;;24.48;12.55;;;;;;;1.53;84.67;99464.75;5112024;28;20395;-69
2022/01/26 09:29:36;;;;;;;25.48;13.15;;;;;;;1.53;84.18;99462.06;5112499;28;20466;-69
2022/01/26 09:32:04;;;;;;;47.38;22.90;;;;;;;1.58;84.91;99458.72;5111820;28;20016;-69
2022/01/26 09:34:30;;;;;;;67.07;32.70;;;;;;;1.60;83.94;99464.75;5112137;28;20028;-69
2022/01/26 09:36:56;;;;;;;58.63;28.85;;;;;;;1.63;84.68;99457.00;5112095;28;20118;-69
2022/01/26 09:39:23;;;;;;;38.65;20.95;;;;;;;1.68;84.80;99461.81;5112391;28;20023;-69
2022/01/26 09:41:50;;;;;;;28.83;15.57;;;;;;;1.72;84.82;99462.19;5111976;28;20072;-68
2022/01/26 09:44:17;;;;;;;29.65;13.80;;;;;;;1.77;84.20;99465.09;5111576;28;20409;-69
2022/01/26 09:46:44;;;;;;;29.25;14.63;;;;;;;1.70;83.84;99459.72;5111300;28;20042;-69
2022/01/26 09:49:10;;;;;;;30.05;15.63;;;;;;;1.73;83.63;99463.84;5112069;28;20065;-68
2022/01/26 09:51:42;;;;;;;29.48;14.80;;;;;;;1.74;84.30;99463.66;5112050;28;20111;-69
2022/01/26 09:54:13;;;;;;;30.42;14.93;;;;;;;1.76;84.23;99458.03;5111680;28;20019;-69
2022/01/26 09:56:40;;;;;;;33.58;16.42;;;;;;;1.78;84.49;99456.78;5108680;28;20024;-69
2022/01/26 09:59:06;;;;;;;29.08;14.90;;;;;;;1.80;84.59;99451.16;5108297;28;20023;-69
2022/01/26 10:01:45;;;;;;;27.60;13.73;;;;;;;1.85;84.18;99458.59;5111496;28;20479;-69
2022/01/26 10:04:36;;;;;;;29.20;15.07;;;;;;;1.85;83.77;99454.03;5111768;28;20035;-69
2022/01/26 10:07:30;;;;;;;31.33;15.52;;;;;;;1.90;84.52;99464.22;5111555;28;20447;-69
2022/01/26 10:10:06;;;;;;;29.65;15.13;;;;;;;1.92;84.07;99449.44;5111070;28;20101;-69
2022/01/26 10:15:35;;;;;;;33.45;15.68;;;;;;;1.96;84.31;99446.31;5111559;28;20548;-69
2022/01/26 10:18:16;;;;;;;36.85;15.30;;;;;;;1.98;84.16;99447.72;5110774;28;20032;-69
2022/01/26 10:20:53;;;;;;;30.20;12.90;;;;;;;1.95;83.15;99440.03;5111246;28;20030;-68
2022/01/26 10:23:28;;;;;;;32.05;13.88;;;;;;;1.89;82.93;99432.78;5111678;28;20370;-71
2022/01/26 10:26:01;;;;;;;40.20;15.75;;;;;;;1.86;82.95;99428.66;5087863;27;20031;-70
2022/01/26 10:28:38;;;;;;;47.70;17.77;;;;;;;1.83;83.71;99439.09;5109970;27;20028;-71
2022/01/26 10:31:13;;;;;;;34.63;13.63;;;;;;;1.78;83.52;99437.00;5110543;28;20107;-72
2022/01/26 10:33:38;;;;;;;38.05;13.35;;;;;;;1.76;83.08;99429.13;5110329;28;20032;-71
2022/01/26 10:36:04;;;;;;;30.05;11.85;;;;;;;1.67;83.52;99440.38;5109993;28;20035;-68
2022/01/26 10:38:29;;;;;;;33.97;14.52;;;;;;;1.59;83.70;99425.22;5109209;27;20038;-68
2022/01/26 10:40:55;;;;;;;59.80;21.08;;;;;;;1.58;83.55;99428.97;5110238;28;20027;-68
2022/01/26 10:43:20;;;;;;;60.15;24.02;;;;;;;1.59;83.71;99428.75;5109683;28;20039;-69
2022/01/26 10:46:03;;;;;;;37.42;18.13;;;;;;;1.64;83.37;99428.94;5110071;28;20027;-68
2022/01/26 10:53:47;;;;;;;33.10;14.48;;;;;;;1.74;83.46;99419.53;5109814;28;20122;-70
2022/01/26 10:56:12;;;;;;;;;;;;;;;1.72;83.40;99408.94;5108288;28;20088;-72
2022/01/26 10:58:39;;;;;;;42.53;16.83;;;;;;;1.71;83.51;99411.84;5109614;28;19916;-72
2022/01/26 11:01:05;;;;;;;41.97;17.95;;;;;;;1.74;83.87;99412.28;5109890;28;20028;-71
2022/01/26 11:03:31;;;;;;;35.38;16.67;;;;;;;1.79;84.03;99400.78;5108818;28;20040;-72
2022/01/26 11:05:57;;;;;;;31.63;14.80;;;;;;;1.86;83.67;99398.03;5109022;28;20372;-70
2022/01/26 11:08:24;;;;;;;26.75;13.18;;;;;;;1.91;83.97;99400.94;5090886;28;20031;-69
2022/01/26 11:10:49;;;;;;;23.20;11.68;;;;;;;1.94;83.75;99403.22;5110152;28;20040;-69
2022/01/26 11:13:34;;;;;;;28.33;14.40;;;;;;;2.01;83.87;99398.59;5110490;28;20295;-69
2022/01/26 11:16:10;;;;;;;19.10;10.32;;;;;;;2.02;83.72;99392.16;5109194;28;20058;-68
2022/01/26 11:18:51;;;;;;;16.98;7.82;;;;;;;2.13;83.18;99400.63;5109893;28;20049;-69
2022/01/26 11:21:29;;;;;;;18.13;8.77;;;;;;;2.12;83.42;99391.66;5109952;28;20089;-68
2022/01/26 11:24:04;;;;;;;18.13;9.18;;;;;;;2.11;83.54;99390.00;5109462;28;20609;-68
2022/01/26 11:26:29;;;;;;;15.48;8.32;;;;;;;2.12;82.72;99382.72;5109328;28;20024;-68
2022/01/26 11:28:55;;;;;;;19.35;8.60;;;;;;;2.06;83.04;99381.69;5109859;28;20101;-68
2022/01/26 11:31:21;;;;;;;20.25;9.43;;;;;;;1.98;82.70;99390.09;5109794;28;20028;-68
2022/01/26 11:33:48;;;;;;;17.38;8.95;;;;;;;1.97;82.26;99388.44;5109403;28;20015;-69
2022/01/26 11:36:17;;;;;;;18.67;10.18;;;;;;;2.01;82.69;99392.38;5089034;28;20036;-69
2022/01/26 11:46:53;;;;;;;22.40;10.02;;;;;;;1.95;82.85;99383.22;5113076;28;20540;-71
2022/01/26 11:49:25;;;;;;;18.85;8.90;;;;;;;1.97;83.03;99380.31;5112620;28;20020;-69
2022/01/26 11:51:54;;;;;;;18.98;9.63;;;;;;;1.98;82.57;99380.09;5111821;28;20055;-69
2022/01/26 11:54:24;;;;;;;17.48;9.20;;;;;;;1.91;83.25;99369.31;5111941;28;20024;-70
2022/01/26 11:57:12;;;;;;;17.63;9.20;;;;;;;1.85;83.07;99369.34;5110931;28;20015;-69
2022/01/26 11:59:50;;;;;;;19.50;9.65;;;;;;;1.84;82.63;99367.69;5111854;28;20364;-70
2022/01/26 12:02:28;;;;;;;21.63;10.52;;;;;;;1.83;83.07;99361.44;5093410;28;20050;-69
2022/01/26 12:05:02;;;;;;;34.13;14.32;;;;;;;1.85;83.12;99363.94;5111597;28;20033;-70
2022/01/26 12:07:28;;;;;;;21.65;11.52;;;;;;;1.86;83.00;99358.31;5112593;28;20709;-70
2022/01/26 12:09:56;;;;;;;17.05;9.30;;;;;;;1.90;83.48;99353.28;5112875;28;20065;-70
2022/01/26 12:12:23;;;;;;;17.25;9.73;;;;;;;1.89;82.94;99348.94;5113589;28;20376;-69
2022/01/26 12:15:05;;;;;;;19.80;10.13;;;;;;;1.93;83.21;99353.69;5113695;28;20081;-69
2022/01/26 12:17:36;;;;;;;19.42;11.20;;;;;;;1.99;83.56;99345.75;5111971;28;20036;-70
2022/01/26 12:37:05;;;;;;;38.65;13.07;;;;;;;2.07;82.58;99350.88;5068742;28;20066;-69
2022/01/26 12:43:05;;;;;;;45.13;16.35;;;;;;;2.08;83.49;99344.44;5113623;28;20041;-70
2022/01/26 12:45:03;;;;;;;35.80;14.00;;;;;;;2.12;82.82;99340.25;5098225;28;20078;-69
2022/01/26 12:47:31;;;;;;;34.40;14.43;;;;;;;2.17;83.28;99336.91;5110705;27;20069;-70
2022/01/26 12:49:57;;;;;;;31.75;14.15;;;;;;;2.17;82.55;99340.41;5092949;28;20472;-69
2022/01/26 12:52:23;;;;;;;28.42;12.45;;;;;;;2.18;82.45;99339.38;5112401;28;20497;-70
2022/01/26 12:54:49;;;;;;;22.63;11.13;;;;;;;2.15;82.22;99334.41;5112218;28;20098;-69
2022/01/26 12:57:14;;;;;;;38.70;16.70;;;;;;;2.15;82.68;99337.09;5110052;28;20035;-68
2022/01/26 12:59:40;;;;;;;26.60;12.40;;;;;;;2.11;82.94;99335.06;5111761;27;20063;-69
2022/01/26 13:02:06;;;;;;;32.45;15.18;;;;;;;2.12;82.74;99332.13;5111777;27;20062;-69
2022/01/26 13:04:31;;;;;;;26.40;12.95;;;;;;;2.20;82.95;99331.06;5117919;27;20084;-69
2022/01/26 13:06:57;;;;;;;20.58;10.40;;;;;;;2.25;83.13;99333.09;5110782;27;20518;-68
2022/01/26 13:09:30;;;;;;;17.63;8.50;;;;;;;2.25;82.86;99319.56;5111521;28;20024;-68
2022/01/26 13:11:58;;;;;;;20.90;10.43;;;;;;;2.24;81.74;99318.75;5112067;28;20035;-70
2022/01/26 13:14:40;;;;;;;23.70;12.30;;;;;;;2.22;82.12;99321.66;5105783;27;20039;-70
2022/01/26 13:20:43;;;;;;;24.35;10.55;;;;;;;2.16;82.34;99335.25;5109954;28;20122;-68
2022/01/26 13:28:41;;;;;;;27.15;10.98;;;;;;;2.15;82.64;99331.69;5110636;28;20608;-69
2022/01/26 13:36:45;;;;;;;22.00;11.40;;;;;;;2.10;82.13;99346.94;5110589;28;20122;-69
2022/01/26 13:39:33;;;;;;;22.20;11.07;;;;;;;2.05;82.50;99340.31;5111539;27;20035;-68
2022/01/26 13:53:18;;;;;;;24.25;12.52;;;;;;;2.02;82.50;99338.03;5110570;28;20137;-70
2022/01/26 14:00:53;;;;;;;31.58;15.40;;;;;;;2.04;82.73;99345.91;5108755;28;20039;-70
2022/01/26 14:03:19;;;;;;;23.83;11.85;;;;;;;2.05;82.85;99347.56;5109904;28;20019;-70
2022/01/26 14:05:44;;;;;;;22.20;11.98;;;;;;;1.99;82.25;99341.16;5102334;27;20038;-69
2022/01/26 14:08:10;;;;;;;22.83;11.27;;;;;;;1.97;82.72;99334.34;5109040;28;20039;-69
2022/01/26 14:10:36;;;;;;;24.33;11.90;;;;;;;1.88;83.14;99333.75;5108738;28;20106;-69
2022/01/26 14:13:02;;;;;;;27.13;14.65;;;;;;;1.80;83.17;99329.44;5109025;28;20031;-68
2022/01/26 14:15:39;;;;;;;25.17;11.15;;;;;;;1.74;83.62;99327.59;5109670;28;20123;-68
2022/01/26 14:20:55;;;;;;;29.60;13.25;;;;;;;1.64;83.29;99336.19;5047190;28;20064;-68
2022/01/26 14:26:07;;;;;;;18.65;8.82;;;;;;;1.59;83.28;99327.88;5109653;28;20085;-68
2022/01/26 14:28:35;;;;;;;23.20;10.65;;;;;;;1.52;83.17;99327.06;5110042;28;20023;-69
2022/01/26 14:33:43;;;;;;;25.40;11.57;;;;;;;1.45;83.60;99325.22;5108222;28;20031;-70
2022/01/26 14:55:29;;;;;;;20.70;11.18;;;;;;;1.36;84.06;99315.72;5109204;28;20096;-70